KGED

Delaware Coastal Airport

Georgetown, Delaware, USA
METAR KGED 201954Z AUTO 08009KT 10SM BKN019 BKN025 OVC049 26/21 A3009 RMK AO2 SLP189 T02560206
Observed Flight Rules
Aug-20 @ 19:54 UTC (37 minutes ago) Marginal Visual Flight Rules
Wind Visibility Clouds
80° at 9 knots 10 miles
  • Broken at 1,900' AGL
  • Broken at 2,500' AGL
  • Overcast at 4,900' AGL
Temperatures Readings
Current 26°C / 79°F
Dewpoint 21°C / 70°F
Humidity 74%
Altimeter 30.09" Hg
Pressure 1018.9 hPa
Elevation 19
METAR KGED 201954Z AUTO 08009KT 10SM BKN019 BKN025 OVC049 26/21 A3009 RMK AO2 SLP189 T02560206
Observed Flight Rules
Aug-20 @ 19:54 UTC
(37 minutes ago)
MVFR
Wind Visibility
80° at 9 knots 10 miles
Clouds
  • Broken at 1,900' AGL
  • Broken at 2,500' AGL
  • Overcast at 4,900' AGL
Temperature Dewpoint
26°C / 79°F 21°C / 70°F
Humidity Altimeter Pressure
74% 30.09" Hg 1018.9 hPa